createdAt,value
2022-12-15T00:00:20.677Z,48.33
2022-12-15T00:03:06.732Z,51.80
2022-12-15T00:08:39.057Z,50.28
2022-12-15T00:11:25.036Z,52.15
2022-12-15T00:14:10.941Z,50.88
2022-12-15T00:16:57.013Z,53.33
2022-12-15T00:22:29.353Z,75.57
2022-12-15T00:25:15.326Z,70.35
2022-12-15T00:28:01.271Z,65.97
2022-12-15T00:30:49.596Z,67.78
2022-12-15T00:33:35.640Z,69.93
2022-12-15T00:36:21.623Z,63.63
2022-12-15T00:38:48.985Z,63.53
2022-12-15T00:41:18.888Z,64.43
2022-12-15T00:43:46.867Z,63.40
2022-12-15T00:46:33.226Z,65.38
2022-12-15T00:49:01.472Z,64.93
2022-12-15T00:51:47.436Z,61.83
2022-12-15T00:54:35.027Z,61.92
2022-12-15T00:57:21.094Z,65.45
2022-12-15T01:02:53.514Z,59.23
2022-12-15T01:05:39.518Z,59.78
2022-12-15T01:08:25.487Z,56.85
2022-12-15T01:11:11.590Z,59.67
2022-12-15T01:16:43.313Z,62.55
2022-12-15T01:21:57.279Z,74.90
2022-12-15T01:24:24.613Z,71.68
2022-12-15T01:26:51.882Z,76.20
2022-12-15T01:29:19.134Z,75.78
2022-12-15T01:31:49.921Z,78.07
2022-12-15T01:34:20.127Z,79.72
2022-12-15T01:36:47.763Z,82.05
2022-12-15T01:39:15.971Z,76.60
2022-12-15T01:41:43.189Z,72.55
2022-12-15T01:44:25.020Z,76.68
2022-12-15T01:46:56.462Z,72.57
2022-12-15T01:49:32.518Z,69.10
2022-12-15T01:52:05.136Z,68.30
2022-12-15T01:54:57.841Z,65.65
2022-12-15T01:57:30.407Z,67.10
2022-12-15T02:00:05.328Z,64.60
2022-12-15T02:05:09.641Z,70.30
2022-12-15T02:07:36.917Z,77.22
2022-12-15T02:10:07.546Z,79.65
2022-12-15T02:13:35.645Z,77.22
2022-12-15T02:16:37.109Z,77.88
2022-12-15T02:19:38.242Z,80.60
2022-12-15T02:22:48.855Z,78.57
2022-12-15T02:25:50.954Z,75.35
2022-12-15T02:29:34.833Z,74.53
2022-12-15T02:32:17.182Z,75.22
2022-12-15T02:35:04.093Z,73.32
2022-12-15T02:37:39.629Z,63.60
2022-12-15T02:42:48.538Z,62.25
2022-12-15T02:45:32.368Z,61.33
2022-12-15T02:48:33.186Z,62.67
2022-12-15T02:51:51.257Z,59.83
2022-12-15T02:55:02.230Z,55.92
2022-12-15T02:58:08.941Z,51.70
2022-12-15T03:00:46.481Z,52.28
2022-12-15T03:03:20.486Z,45.08
2022-12-15T03:05:55.115Z,56.63
2022-12-15T03:08:23.108Z,58.72
2022-12-15T03:10:53.284Z,58.40
2022-12-15T03:13:24.825Z,57.72
2022-12-15T03:15:54.464Z,57.55
2022-12-15T03:18:21.772Z,56.78
2022-12-15T03:20:50.632Z,55.78
2022-12-15T03:23:17.806Z,53.53
2022-12-15T03:25:46.134Z,54.95
2022-12-15T03:28:18.094Z,55.95
2022-12-15T03:30:45.414Z,52.38
2022-12-15T03:33:18.514Z,54.03
2022-12-15T03:35:45.731Z,53.03
2022-12-15T03:38:13.223Z,57.10
2022-12-15T03:40:40.502Z,55.05
2022-12-15T03:43:07.706Z,57.70
2022-12-15T03:45:34.982Z,55.67
2022-12-15T03:48:02.397Z,55.38
2022-12-15T03:50:30.349Z,53.40
2022-12-15T03:53:02.181Z,53.13
2022-12-15T03:55:30.797Z,53.72
2022-12-15T03:57:59.309Z,54.30
2022-12-15T04:00:27.361Z,53.90
2022-12-15T04:02:54.894Z,52.03
2022-12-15T04:05:29.136Z,51.83
2022-12-15T04:07:58.359Z,53.33
2022-12-15T04:10:34.349Z,52.47
2022-12-15T04:13:10.717Z,52.10
2022-12-15T04:18:10.480Z,51.10
2022-12-15T04:20:40.496Z,52.92
2022-12-15T04:23:08.334Z,56.20
2022-12-15T04:25:55.585Z,60.25
2022-12-15T04:28:41.506Z,58.47
2022-12-15T04:31:36.688Z,59.22
2022-12-15T04:34:27.332Z,57.50
2022-12-15T04:37:13.484Z,56.97
2022-12-15T04:42:51.918Z,66.13
2022-12-15T04:45:42.715Z,65.57
2022-12-15T04:48:29.570Z,58.05
2022-12-15T04:51:15.676Z,62.33
2022-12-15T04:56:51.322Z,60.95
2022-12-15T04:59:37.324Z,57.75
2022-12-15T05:02:23.309Z,57.10
2022-12-15T05:05:09.400Z,56.10
2022-12-15T05:07:55.429Z,56.70
2022-12-15T05:10:41.509Z,54.78
2022-12-15T05:16:14.067Z,53.27
2022-12-15T05:19:00.278Z,55.40
2022-12-15T05:24:31.825Z,51.00
2022-12-15T05:27:17.835Z,50.38
2022-12-15T05:30:03.810Z,47.20
2022-12-15T05:32:33.309Z,51.60
2022-12-15T05:35:01.413Z,50.85
2022-12-15T05:37:28.808Z,55.72
2022-12-15T05:39:55.998Z,53.90
2022-12-15T05:42:23.333Z,51.55
2022-12-15T05:44:50.549Z,50.35
2022-12-15T05:47:17.657Z,53.03
2022-12-15T05:49:44.829Z,49.78
2022-12-15T05:52:12.288Z,51.50
2022-12-15T05:54:39.422Z,52.10
2022-12-15T05:57:06.791Z,50.22
2022-12-15T05:59:33.992Z,49.72
2022-12-15T06:02:01.317Z,50.58
2022-12-15T06:04:28.704Z,50.58
2022-12-15T06:06:56.040Z,51.10
2022-12-15T06:09:23.187Z,49.88
2022-12-15T06:11:50.455Z,51.15
2022-12-15T06:14:17.680Z,51.05
2022-12-15T06:16:50.046Z,51.42
2022-12-15T06:19:19.916Z,49.35
2022-12-15T06:21:47.481Z,50.58
2022-12-15T06:24:15.110Z,47.63
2022-12-15T06:26:42.539Z,49.95
2022-12-15T06:29:12.149Z,48.60
2022-12-15T06:31:40.737Z,50.00
2022-12-15T06:34:13.384Z,50.40
2022-12-15T06:36:42.503Z,51.28
2022-12-15T06:39:15.071Z,52.35
2022-12-15T06:41:43.971Z,49.70
2022-12-15T06:44:16.217Z,45.72
2022-12-15T06:46:45.625Z,44.25
2022-12-15T06:49:13.469Z,44.38
2022-12-15T06:51:41.565Z,46.80
2022-12-15T06:54:11.138Z,47.00
2022-12-15T06:56:39.558Z,46.05
2022-12-15T06:59:08.369Z,46.08
2022-12-15T07:01:36.092Z,46.08
2022-12-15T07:04:05.446Z,47.75
2022-12-15T07:06:36.741Z,46.55
2022-12-15T07:09:10.344Z,47.55
2022-12-15T07:11:37.651Z,46.55
2022-12-15T07:14:05.140Z,47.40
2022-12-15T07:16:32.820Z,45.55
2022-12-15T07:19:00.122Z,44.15
2022-12-15T07:21:27.281Z,43.20
2022-12-15T07:23:56.462Z,43.00
2022-12-15T07:26:24.735Z,41.78
2022-12-15T07:28:53.349Z,39.90
2022-12-15T07:31:22.442Z,38.63
2022-12-15T07:33:51.833Z,37.80
2022-12-15T07:36:18.953Z,35.10
2022-12-15T07:38:49.889Z,37.30
2022-12-15T07:41:20.294Z,39.33
2022-12-15T07:43:48.310Z,37.60
2022-12-15T07:46:17.015Z,39.65
2022-12-15T07:48:50.118Z,38.30
2022-12-15T07:51:20.335Z,42.95
2022-12-15T07:53:50.171Z,40.90
2022-12-15T07:56:19.605Z,40.15
2022-12-15T07:58:46.988Z,41.97
2022-12-15T08:01:15.770Z,40.47
2022-12-15T08:03:43.354Z,42.33
2022-12-15T08:06:15.108Z,41.17
2022-12-15T08:08:50.537Z,40.70
2022-12-15T08:11:22.062Z,42.22
2022-12-15T08:14:02.458Z,43.38
2022-12-15T08:16:31.191Z,42.95
2022-12-15T08:18:58.643Z,43.47
2022-12-15T08:21:26.005Z,41.00
2022-12-15T08:23:53.260Z,42.65
2022-12-15T08:26:25.042Z,40.47
2022-12-15T08:28:55.587Z,43.53
2022-12-15T08:31:24.443Z,42.30
2022-12-15T08:33:51.802Z,44.80
2022-12-15T08:36:20.048Z,41.85
2022-12-15T08:38:48.162Z,44.20
2022-12-15T08:41:26.437Z,40.38
2022-12-15T08:43:55.468Z,37.63
2022-12-15T08:46:30.423Z,36.88
2022-12-15T08:48:58.185Z,36.08
2022-12-15T08:51:29.794Z,37.00
2022-12-15T08:53:59.109Z,34.78
2022-12-15T08:56:28.149Z,34.80
2022-12-15T08:59:02.124Z,35.08
2022-12-15T09:01:32.823Z,32.30
2022-12-15T09:04:01.292Z,31.77
2022-12-15T09:06:35.191Z,31.98
2022-12-15T09:09:10.219Z,26.33
2022-12-15T09:11:37.445Z,24.90
2022-12-15T09:14:04.738Z,21.70
2022-12-15T09:16:32.057Z,20.98
2022-12-15T09:19:00.848Z,18.63
2022-12-15T09:21:30.792Z,19.85
2022-12-15T09:24:02.164Z,19.17
2022-12-15T09:26:33.416Z,20.60
2022-12-15T09:29:02.023Z,18.98
2022-12-15T09:31:33.672Z,19.35
2022-12-15T09:34:02.042Z,20.75
2022-12-15T09:36:32.464Z,19.80
2022-12-15T09:39:01.804Z,19.95
2022-12-15T09:41:34.818Z,22.52
2022-12-15T09:44:19.869Z,22.52
2022-12-15T09:47:11.448Z,24.13
2022-12-15T09:49:58.779Z,25.02
2022-12-15T09:52:39.831Z,27.42
2022-12-15T09:55:32.685Z,28.58
2022-12-15T09:58:57.200Z,27.77
2022-12-15T10:02:00.209Z,28.17
2022-12-15T10:05:06.159Z,26.77
2022-12-15T10:07:50.392Z,25.55
2022-12-15T10:10:46.485Z,24.73
2022-12-15T10:13:25.366Z,25.88
2022-12-15T10:16:31.054Z,25.60
2022-12-15T10:19:36.522Z,23.73
2022-12-15T10:22:04.049Z,23.42
2022-12-15T10:27:49.192Z,20.42
2022-12-15T10:30:16.983Z,22.85
2022-12-15T10:33:01.491Z,21.77
2022-12-15T10:35:36.330Z,21.45
2022-12-15T10:38:23.294Z,21.03
2022-12-15T10:40:59.384Z,21.52
2022-12-15T10:43:37.306Z,21.02
2022-12-15T10:46:20.111Z,21.70
2022-12-15T10:48:56.390Z,19.10
2022-12-15T10:51:43.076Z,20.45
2022-12-15T10:54:10.218Z,19.40
2022-12-15T10:56:59.403Z,18.80
2022-12-15T10:59:33.082Z,19.52
2022-12-15T11:02:33.531Z,18.02
2022-12-15T11:05:17.615Z,19.60
2022-12-15T11:08:16.896Z,20.67
2022-12-15T11:11:17.603Z,21.00
2022-12-15T11:14:13.104Z,19.88
2022-12-15T11:16:58.873Z,21.05
2022-12-15T11:20:06.937Z,20.45
2022-12-15T11:22:51.110Z,22.08
2022-12-15T11:25:43.089Z,22.33
2022-12-15T11:28:24.370Z,23.38
2022-12-15T11:31:14.937Z,23.02
2022-12-15T11:33:42.106Z,24.05
2022-12-15T11:36:54.305Z,24.65
2022-12-15T11:40:18.234Z,22.90
2022-12-15T11:43:21.618Z,24.50
2022-12-15T11:46:19.152Z,24.75
2022-12-15T11:49:47.212Z,24.67
2022-12-15T11:52:26.608Z,25.58
2022-12-15T11:55:41.261Z,26.58
2022-12-15T11:59:05.094Z,26.80
2022-12-15T12:02:27.874Z,26.65
2022-12-15T12:05:57.838Z,26.60
2022-12-15T12:09:06.793Z,27.52
2022-12-15T12:12:09.233Z,26.33
2022-12-15T12:15:23.555Z,23.67
2022-12-15T12:17:58.370Z,24.38
2022-12-15T12:20:59.215Z,24.30
2022-12-15T12:23:53.264Z,24.65
2022-12-15T12:29:58.200Z,26.13
2022-12-15T12:32:47.321Z,27.20
2022-12-15T12:35:45.846Z,26.30
2022-12-15T12:38:13.860Z,25.95
2022-12-15T12:40:40.918Z,27.92
2022-12-15T12:43:31.843Z,28.45
2022-12-15T12:46:32.144Z,27.23
2022-12-15T12:49:42.011Z,27.05
2022-12-15T12:52:52.168Z,28.48
2022-12-15T12:55:44.010Z,27.17
2022-12-15T12:58:41.455Z,28.52
2022-12-15T13:01:13.033Z,29.38
2022-12-15T13:03:42.610Z,29.02
2022-12-15T13:06:42.339Z,31.67
2022-12-15T13:09:18.952Z,31.35
2022-12-15T13:11:49.149Z,33.22
2022-12-15T13:14:53.821Z,33.50
2022-12-15T13:17:32.965Z,33.17
2022-12-15T13:20:03.078Z,33.92
2022-12-15T13:22:36.049Z,37.08
2022-12-15T13:25:48.583Z,36.60
2022-12-15T13:28:36.251Z,36.92
2022-12-15T13:31:21.203Z,37.25
2022-12-15T13:33:51.425Z,39.30
2022-12-15T13:36:37.212Z,39.67
2022-12-15T13:39:16.337Z,39.25
2022-12-15T13:42:15.266Z,40.80
2022-12-15T13:45:05.473Z,38.95
2022-12-15T13:47:33.525Z,41.30
2022-12-15T13:50:09.449Z,42.17
2022-12-15T13:55:51.476Z,40.92
2022-12-15T13:58:20.938Z,44.30
2022-12-15T14:00:58.088Z,46.35
2022-12-15T14:03:26.655Z,44.63
2022-12-15T14:06:00.204Z,46.78
2022-12-15T14:08:30.504Z,45.75
2022-12-15T14:11:16.695Z,44.47
2022-12-15T14:13:54.159Z,46.17
2022-12-15T14:16:23.060Z,48.55
2022-12-15T14:22:04.226Z,45.60
2022-12-15T14:24:39.456Z,47.22
2022-12-15T14:27:07.519Z,48.17
2022-12-15T14:29:34.673Z,48.85
2022-12-15T14:32:02.250Z,47.72
2022-12-15T14:34:39.909Z,49.05
2022-12-15T14:37:20.089Z,49.42
2022-12-15T14:39:50.153Z,48.13
2022-12-15T14:42:29.291Z,49.60
2022-12-15T14:44:58.338Z,47.53
2022-12-15T14:47:29.175Z,51.08
2022-12-15T14:50:01.024Z,50.00
2022-12-15T14:52:41.253Z,49.35
2022-12-15T14:55:36.793Z,51.45
2022-12-15T14:58:36.083Z,48.28
2022-12-15T15:01:40.892Z,46.15
2022-12-15T15:04:34.133Z,46.70
2022-12-15T15:07:18.231Z,43.72
2022-12-15T15:09:46.941Z,46.75
2022-12-15T15:12:25.101Z,48.17
2022-12-15T15:15:04.035Z,45.70
2022-12-15T15:17:52.648Z,46.30
2022-12-15T15:20:29.327Z,47.10
2022-12-15T15:23:17.813Z,48.13
2022-12-15T15:26:04.810Z,49.42
2022-12-15T15:28:44.831Z,44.80
2022-12-15T15:31:41.768Z,50.17
2022-12-15T15:34:09.693Z,47.10
2022-12-15T15:36:39.538Z,46.63
2022-12-15T15:39:15.762Z,48.40
2022-12-15T15:41:43.127Z,48.30
2022-12-15T15:44:15.865Z,50.60
2022-12-15T15:46:52.020Z,50.10
2022-12-15T15:49:21.952Z,48.42
2022-12-15T15:51:49.642Z,48.13
2022-12-15T15:54:22.963Z,49.22
2022-12-15T15:56:50.214Z,49.33
2022-12-15T15:59:21.403Z,46.45
2022-12-15T16:01:55.973Z,44.47
2022-12-15T16:04:24.237Z,47.57
2022-12-15T16:06:52.922Z,47.25
2022-12-15T16:09:20.460Z,46.63
2022-12-15T16:11:47.997Z,47.28
2022-12-15T16:14:17.734Z,46.60
2022-12-15T16:16:45.677Z,48.03
2022-12-15T16:19:13.031Z,49.13
2022-12-15T16:21:42.615Z,45.47
2022-12-15T16:24:16.997Z,50.13
2022-12-15T16:26:51.067Z,50.05
2022-12-15T16:29:21.608Z,47.75
2022-12-15T16:31:49.084Z,47.78
2022-12-15T16:34:19.026Z,46.95
2022-12-15T16:36:46.361Z,45.50
2022-12-15T16:39:35.003Z,45.15
2022-12-15T16:42:02.918Z,47.42
2022-12-15T16:44:30.828Z,43.60
2022-12-15T16:46:58.911Z,48.10
2022-12-15T16:49:27.755Z,45.25
2022-12-15T16:51:55.141Z,41.00
2022-12-15T16:54:28.793Z,43.65
2022-12-15T16:56:58.328Z,41.05
2022-12-15T16:59:35.643Z,42.92
2022-12-15T17:02:28.127Z,38.85
2022-12-15T17:04:55.847Z,39.85
2022-12-15T17:07:26.629Z,36.35
2022-12-15T17:09:54.008Z,43.28
2022-12-15T17:12:21.302Z,39.17
2022-12-15T17:14:48.521Z,36.58
2022-12-15T17:17:19.524Z,37.25
2022-12-15T17:22:34.383Z,42.85
2022-12-15T17:25:01.844Z,42.95
2022-12-15T17:27:30.128Z,42.92
2022-12-15T17:29:59.715Z,43.80
2022-12-15T17:32:26.935Z,43.88
2022-12-15T17:34:54.234Z,43.75
2022-12-15T17:37:21.521Z,41.67
2022-12-15T17:39:51.235Z,42.65
2022-12-15T17:42:21.306Z,45.85
2022-12-15T17:44:49.434Z,41.92
2022-12-15T17:47:19.464Z,40.72
2022-12-15T17:49:47.302Z,42.03
2022-12-15T17:52:30.365Z,47.80
2022-12-15T17:54:58.098Z,40.30
2022-12-15T17:57:25.693Z,51.33
2022-12-15T17:59:54.001Z,39.72
2022-12-15T18:02:21.289Z,39.75
2022-12-15T18:04:48.654Z,46.63
2022-12-15T18:07:21.472Z,43.70
2022-12-15T18:09:51.331Z,42.30
2022-12-15T18:12:27.474Z,42.92
2022-12-15T18:14:56.656Z,44.00
2022-12-15T18:17:24.514Z,46.22
2022-12-15T18:19:51.722Z,43.97
2022-12-15T18:22:24.569Z,45.10
2022-12-15T18:24:54.300Z,41.63
2022-12-15T18:27:29.025Z,41.97
2022-12-15T18:29:56.994Z,42.65
2022-12-15T18:32:27.321Z,43.92
2022-12-15T18:34:55.143Z,43.40
2022-12-15T18:37:28.183Z,49.42
2022-12-15T18:39:59.493Z,47.78
2022-12-15T18:42:31.342Z,48.22
2022-12-15T18:45:00.318Z,44.35
2022-12-15T18:47:27.846Z,45.08
2022-12-15T18:49:55.151Z,46.15
2022-12-15T18:52:27.673Z,46.53
2022-12-15T18:54:56.071Z,42.60
2022-12-15T18:57:38.190Z,40.97
2022-12-15T19:00:14.432Z,43.53
2022-12-15T19:02:43.030Z,38.67
2022-12-15T19:05:28.952Z,43.30
2022-12-15T19:08:10.254Z,32.58
2022-12-15T19:11:13.212Z,40.05
2022-12-15T19:13:40.576Z,42.60
2022-12-15T19:16:19.901Z,37.10
2022-12-15T19:19:06.026Z,55.95
2022-12-15T19:24:44.894Z,37.13
2022-12-15T19:27:23.360Z,35.65
2022-12-15T19:29:51.228Z,39.22
2022-12-15T19:32:18.352Z,40.17
2022-12-15T19:34:46.155Z,39.05
2022-12-15T19:37:25.533Z,34.38
2022-12-15T19:39:54.271Z,34.60
2022-12-15T19:42:35.931Z,34.45
2022-12-15T19:45:24.061Z,35.08
2022-12-15T19:47:52.060Z,37.42
2022-12-15T19:50:33.150Z,36.50
2022-12-15T19:53:06.586Z,36.75
2022-12-15T19:55:35.880Z,35.78
2022-12-15T19:58:31.639Z,37.42
2022-12-15T20:01:06.363Z,31.85
2022-12-15T20:03:35.135Z,29.10
2022-12-15T20:06:04.574Z,29.65
2022-12-15T20:08:38.761Z,32.35
2022-12-15T20:11:13.011Z,35.25
2022-12-15T20:13:40.216Z,33.67
2022-12-15T20:16:09.030Z,32.88
2022-12-15T20:18:36.443Z,33.20
2022-12-15T20:21:03.778Z,32.78
2022-12-15T20:23:31.811Z,33.15
2022-12-15T20:26:01.121Z,33.90
2022-12-15T20:28:30.130Z,33.20
2022-12-15T20:30:58.190Z,33.05
2022-12-15T20:33:25.481Z,31.63
2022-12-15T20:35:53.111Z,31.33
2022-12-15T20:38:34.057Z,31.70
2022-12-15T20:41:03.591Z,39.47
2022-12-15T20:43:34.584Z,33.28
2022-12-15T20:46:13.166Z,31.05
2022-12-15T20:48:40.790Z,35.38
2022-12-15T20:51:30.946Z,32.95
2022-12-15T20:54:02.260Z,32.28
2022-12-15T20:56:29.858Z,32.20
2022-12-15T20:58:58.750Z,31.45
2022-12-15T21:01:33.513Z,30.10
2022-12-15T21:04:16.637Z,29.00
2022-12-15T21:06:44.408Z,30.60
2022-12-15T21:09:14.830Z,28.75
2022-12-15T21:11:42.380Z,28.08
2022-12-15T21:14:20.408Z,28.20
2022-12-15T21:16:48.346Z,29.88
2022-12-15T21:19:21.277Z,29.13
2022-12-15T21:21:55.302Z,28.90
2022-12-15T21:24:28.544Z,24.95
2022-12-15T21:26:56.263Z,26.83
2022-12-15T21:29:27.950Z,28.42
2022-12-15T21:31:55.204Z,29.67
2022-12-15T21:34:22.585Z,26.60
2022-12-15T21:36:55.213Z,29.50
2022-12-15T21:39:34.068Z,28.67
2022-12-15T21:42:12.219Z,28.58
2022-12-15T21:44:39.516Z,30.80
2022-12-15T21:47:49.768Z,31.88
2022-12-15T21:50:19.821Z,31.63
2022-12-15T21:52:47.895Z,32.25
2022-12-15T21:55:21.278Z,29.77
2022-12-15T21:57:49.005Z,29.27
2022-12-15T22:00:18.867Z,30.25
2022-12-15T22:02:49.402Z,29.25
2022-12-15T22:05:29.202Z,30.90
2022-12-15T22:07:58.628Z,29.90
2022-12-15T22:10:26.243Z,31.02
2022-12-15T22:12:59.289Z,42.95
2022-12-15T22:15:28.681Z,30.45
2022-12-15T22:17:56.057Z,29.60
2022-12-15T22:20:25.174Z,28.75
2022-12-15T22:22:52.348Z,30.00
2022-12-15T22:25:25.904Z,30.13
2022-12-15T22:27:54.738Z,28.40
2022-12-15T22:30:27.133Z,27.38
2022-12-15T22:32:54.625Z,37.53
2022-12-15T22:35:26.146Z,27.45
2022-12-15T22:37:53.796Z,26.85
2022-12-15T22:40:22.714Z,29.73
2022-12-15T22:42:55.483Z,29.87
2022-12-15T22:45:26.158Z,29.40
2022-12-15T22:47:55.177Z,27.40
2022-12-15T22:50:26.760Z,27.80
2022-12-15T22:52:55.074Z,28.48
2022-12-15T22:55:24.347Z,29.95
2022-12-15T22:58:07.397Z,30.77
2022-12-15T23:00:34.824Z,29.40
2022-12-15T23:03:02.470Z,30.55
2022-12-15T23:05:29.883Z,27.52
2022-12-15T23:07:58.614Z,27.85
2022-12-15T23:10:44.560Z,27.05
2022-12-15T23:13:11.831Z,29.45
2022-12-15T23:15:57.587Z,30.85
2022-12-15T23:18:25.000Z,30.35
2022-12-15T23:20:52.323Z,29.95
2022-12-15T23:23:19.872Z,30.70
2022-12-15T23:25:47.099Z,28.75
2022-12-15T23:28:14.609Z,30.75
2022-12-15T23:30:41.913Z,29.17
2022-12-15T23:33:09.044Z,30.50
2022-12-15T23:35:40.564Z,32.20
2022-12-15T23:38:07.734Z,30.67
2022-12-15T23:40:35.804Z,31.50
2022-12-15T23:43:03.249Z,31.38
2022-12-15T23:45:30.396Z,32.05
2022-12-15T23:47:57.573Z,30.98
2022-12-15T23:50:24.826Z,31.58
2022-12-15T23:52:52.114Z,31.90
2022-12-15T23:55:19.569Z,32.15
2022-12-15T23:57:46.841Z,32.15
